createdAt,value
2016-08-29T00:00:40.269Z,38.5
2016-08-29T00:01:46.566Z,38.7
2016-08-29T00:02:40.331Z,38.78
2016-08-29T00:03:40.359Z,38.68
2016-08-29T00:04:41.102Z,38.7
2016-08-29T00:05:41.125Z,38.58
2016-08-29T00:06:40.455Z,38.7
2016-08-29T00:07:40.478Z,38.87
2016-08-29T00:08:40.508Z,39.06
2016-08-29T00:09:40.541Z,38.68
2016-08-29T00:10:40.564Z,38.39
2016-08-29T00:11:40.596Z,38.87
2016-08-29T00:12:40.634Z,38.78
2016-08-29T00:13:40.655Z,39.06
2016-08-29T00:14:40.685Z,38.96
2016-08-29T00:15:40.763Z,39.26
2016-08-29T00:16:40.745Z,39.16
2016-08-29T00:17:40.773Z,39.16
2016-08-29T00:18:41.008Z,39.36
2016-08-29T00:19:40.833Z,39.36
2016-08-29T00:20:40.860Z,39.36
2016-08-29T00:21:40.967Z,39.36
2016-08-29T00:22:40.921Z,39.45
2016-08-29T00:23:40.952Z,39.26
2016-08-29T00:24:40.982Z,39.36
2016-08-29T00:25:41.013Z,39.36
2016-08-29T00:26:41.154Z,39.65
2016-08-29T00:27:41.182Z,38.96
2016-08-29T00:28:41.099Z,39.65
2016-08-29T00:29:41.128Z,39.74
2016-08-29T00:30:41.158Z,39.45
2016-08-29T00:31:41.188Z,39.55
2016-08-29T00:32:41.246Z,39.55
2016-08-29T00:33:41.256Z,39.65
2016-08-29T00:34:41.277Z,39.55
2016-08-29T00:35:41.306Z,39.53
2016-08-29T00:36:41.335Z,39.74
2016-08-29T00:37:41.364Z,39.36
2016-08-29T00:38:41.393Z,39.65
2016-08-29T00:39:41.423Z,39.53
2016-08-29T00:40:41.450Z,39.53
2016-08-29T00:41:41.484Z,39.53
2016-08-29T00:42:41.511Z,39.72
2016-08-29T00:43:41.540Z,39.82
2016-08-29T00:44:41.570Z,39.92
2016-08-29T00:45:41.597Z,40.01
2016-08-29T00:46:41.627Z,40.01
2016-08-29T00:47:41.658Z,40.01
2016-08-29T00:48:41.684Z,40.11
2016-08-29T00:49:41.713Z,39.92
2016-08-29T00:50:41.743Z,40.11
2016-08-29T00:51:41.773Z,40.11
2016-08-29T00:52:41.915Z,40.11
2016-08-29T00:53:41.833Z,40.21
2016-08-29T00:54:41.859Z,40.21
2016-08-29T00:55:42.596Z,40.11
2016-08-29T00:56:42.063Z,39.82
2016-08-29T00:57:41.949Z,40.21
2016-08-29T00:58:41.978Z,40.21
2016-08-29T00:59:42.012Z,40.21
2016-08-29T01:00:42.041Z,40.59
2016-08-29T01:01:42.072Z,40.31
2016-08-29T01:02:42.098Z,40.31
2016-08-29T01:03:42.125Z,40.11
2016-08-29T01:04:42.254Z,40.59
2016-08-29T01:05:42.189Z,40.11
2016-08-29T01:06:42.211Z,40.31
2016-08-29T01:07:42.244Z,40.4
2016-08-29T01:08:42.292Z,40.21
2016-08-29T01:09:43.008Z,40.79
2016-08-29T01:10:42.332Z,40.4
2016-08-29T01:11:42.362Z,40.4
2016-08-29T01:12:42.493Z,40.21
2016-08-29T01:13:42.418Z,40.4
2016-08-29T01:14:42.449Z,40.31
2016-08-29T01:15:42.477Z,40.4
2016-08-29T01:16:42.508Z,40.5
2016-08-29T01:17:42.534Z,40.5
2016-08-29T01:18:42.565Z,40.21
2016-08-29T01:19:42.594Z,40.31
2016-08-29T01:20:42.627Z,40.31
2016-08-29T01:21:42.648Z,40.5
2016-08-29T01:22:42.690Z,40.77
2016-08-29T01:23:42.712Z,40.21
2016-08-29T01:24:42.743Z,40.19
2016-08-29T01:25:42.770Z,40.19
2016-08-29T01:26:43.504Z,40.4
2016-08-29T01:27:42.830Z,40.09
2016-08-29T01:28:42.851Z,40.19
2016-08-29T01:29:42.884Z,40.38
2016-08-29T01:30:42.908Z,40.28
2016-08-29T01:31:42.938Z,40.4
2016-08-29T01:32:42.973Z,40.28
2016-08-29T01:33:42.997Z,40.31
2016-08-29T01:34:43.029Z,40.31
2016-08-29T01:35:43.062Z,40.19
2016-08-29T01:36:43.088Z,40.38
2016-08-29T01:37:43.112Z,40.28
2016-08-29T01:38:43.853Z,40.4
2016-08-29T01:39:43.171Z,40.38
2016-08-29T01:40:43.200Z,40.5
2016-08-29T01:41:43.230Z,40.28
2016-08-29T01:42:43.257Z,40.28
2016-08-29T01:43:43.292Z,40.38
2016-08-29T01:44:43.316Z,40.19
2016-08-29T01:45:43.346Z,40.38
2016-08-29T01:46:43.373Z,40.28
2016-08-29T01:47:43.402Z,40.38
2016-08-29T01:48:43.432Z,40.28
2016-08-29T01:49:43.462Z,40.19
2016-08-29T01:50:43.530Z,40.38
2016-08-29T01:51:43.520Z,40.28
2016-08-29T01:52:43.550Z,40.48
2016-08-29T01:53:43.573Z,40.48
2016-08-29T01:54:43.605Z,40.48
2016-08-29T01:55:43.634Z,40.28
2016-08-29T01:56:43.660Z,40.48
2016-08-29T01:57:43.691Z,40.67
2016-08-29T01:58:43.719Z,40.38
2016-08-29T01:59:43.747Z,40.67
2016-08-29T02:00:43.778Z,40.77
2016-08-29T02:01:43.802Z,40.38
2016-08-29T02:02:43.833Z,41.06
2016-08-29T02:03:43.864Z,40.48
2016-08-29T02:04:43.894Z,40.67
2016-08-29T02:05:43.928Z,40.67
2016-08-29T02:06:43.954Z,40.67
2016-08-29T02:07:43.983Z,41.06
2016-08-29T02:08:44.009Z,40.48
2016-08-29T02:09:44.037Z,40.96
2016-08-29T02:10:44.066Z,40.67
2016-08-29T02:11:44.098Z,40.67
2016-08-29T02:12:44.126Z,40.58
2016-08-29T02:13:44.156Z,40.48
2016-08-29T02:14:44.182Z,40.38
2016-08-29T02:15:44.209Z,40.67
2016-08-29T02:16:44.239Z,40.67
2016-08-29T02:17:44.267Z,40.58
2016-08-29T02:18:44.294Z,40.77
2016-08-29T02:19:44.352Z,40.67
2016-08-29T02:20:44.358Z,40.86
2016-08-29T02:21:44.385Z,41.06
2016-08-29T02:22:44.409Z,40.86
2016-08-29T02:23:44.439Z,40.67
2016-08-29T02:24:44.493Z,40.86
2016-08-29T02:25:44.494Z,40.86
2016-08-29T02:26:44.524Z,40.86
2016-08-29T02:27:44.554Z,40.67
2016-08-29T02:28:44.582Z,40.58
2016-08-29T02:29:44.614Z,41.06
2016-08-29T02:30:44.637Z,40.86
2016-08-29T02:31:44.674Z,40.86
2016-08-29T02:32:44.695Z,40.77
2016-08-29T02:33:44.728Z,40.77
2016-08-29T02:34:44.758Z,40.67
2016-08-29T02:35:44.781Z,40.86
2016-08-29T02:36:44.809Z,40.67
2016-08-29T02:37:44.839Z,41.06
2016-08-29T02:38:44.866Z,40.58
2016-08-29T02:39:44.897Z,40.77
2016-08-29T02:40:44.927Z,40.96
2016-08-29T02:41:44.962Z,41.06
2016-08-29T02:42:44.982Z,41.25
2016-08-29T02:43:45.010Z,41.06
2016-08-29T02:44:45.053Z,41.16
2016-08-29T02:45:45.066Z,41.16
2016-08-29T02:46:45.095Z,41.16
2016-08-29T02:47:45.126Z,41.16
2016-08-29T02:48:45.159Z,41.14
2016-08-29T02:49:45.187Z,41.16
2016-08-29T02:50:45.211Z,41.24
2016-08-29T02:51:45.248Z,40.86
2016-08-29T02:52:45.268Z,41.16
2016-08-29T02:53:45.303Z,41.06
2016-08-29T02:54:45.325Z,40.94
2016-08-29T02:55:45.356Z,40.84
2016-08-29T02:56:45.380Z,40.65
2016-08-29T02:57:45.421Z,40.75
2016-08-29T02:58:45.438Z,41.24
2016-08-29T02:59:45.467Z,41.14
2016-08-29T03:00:45.493Z,41.14
2016-08-29T03:01:45.537Z,41.24
2016-08-29T03:02:45.555Z,41.25
2016-08-29T03:03:45.577Z,40.94
2016-08-29T03:04:45.610Z,41.16
2016-08-29T03:05:45.640Z,41.14
2016-08-29T03:06:45.668Z,41.24
2016-08-29T03:07:45.699Z,41.24
2016-08-29T03:08:45.721Z,41.04
2016-08-29T03:09:45.763Z,41.04
2016-08-29T03:10:45.778Z,41.14
2016-08-29T03:11:45.822Z,41.14
2016-08-29T03:12:45.838Z,40.94
2016-08-29T03:13:45.873Z,41.04
2016-08-29T03:14:45.899Z,41.14
2016-08-29T03:15:45.979Z,41.14
2016-08-29T03:16:45.960Z,41.14
2016-08-29T03:17:46.006Z,41.14
2016-08-29T03:18:46.009Z,41.14
2016-08-29T03:19:46.039Z,41.14
2016-08-29T03:20:46.064Z,41.24
2016-08-29T03:21:46.095Z,41.33
2016-08-29T03:22:46.128Z,41.24
2016-08-29T03:23:46.174Z,41.24
2016-08-29T03:24:46.180Z,41.33
2016-08-29T03:25:46.217Z,41.24
2016-08-29T03:26:46.236Z,41.04
2016-08-29T03:27:46.990Z,41.14
2016-08-29T03:28:46.293Z,41.33
2016-08-29T03:29:46.323Z,41.24
2016-08-29T03:30:46.353Z,41.14
2016-08-29T03:31:46.377Z,41.33
2016-08-29T03:32:46.406Z,41.04
2016-08-29T03:33:46.436Z,41.33
2016-08-29T03:34:46.470Z,41.14
2016-08-29T03:35:46.492Z,41.33
2016-08-29T03:36:46.519Z,41.42
2016-08-29T03:37:46.558Z,41.52
2016-08-29T03:38:46.575Z,41.33
2016-08-29T03:39:46.605Z,41.42
2016-08-29T03:40:46.634Z,41.24
2016-08-29T03:41:46.667Z,41.42
2016-08-29T03:42:46.690Z,41.33
2016-08-29T03:43:46.717Z,41.42
2016-08-29T03:44:46.748Z,41.42
2016-08-29T03:45:46.779Z,41.42
2016-08-29T03:46:46.804Z,41.33
2016-08-29T03:47:46.884Z,41.33
2016-08-29T03:48:46.861Z,41.33
2016-08-29T03:49:46.893Z,41.33
2016-08-29T03:50:46.930Z,41.24
2016-08-29T03:51:46.955Z,41.82
2016-08-29T03:52:46.975Z,41.82
2016-08-29T03:53:47.007Z,42.1
2016-08-29T03:54:47.032Z,42.1
2016-08-29T03:55:47.060Z,42.2
2016-08-29T03:56:47.088Z,42.4
2016-08-29T03:57:47.116Z,42.2
2016-08-29T03:58:47.146Z,42.49
2016-08-29T03:59:47.175Z,42.49
2016-08-29T04:00:47.200Z,42.4
2016-08-29T04:01:47.239Z,42.1
2016-08-29T04:02:47.255Z,42.49
2016-08-29T04:03:47.290Z,42.49
2016-08-29T04:04:47.318Z,42.37
2016-08-29T04:05:47.346Z,42.59
2016-08-29T04:06:47.371Z,42.28
2016-08-29T04:07:47.407Z,42.59
2016-08-29T04:08:47.428Z,42.4
2016-08-29T04:09:47.458Z,42.49
2016-08-29T04:10:47.486Z,42.68
2016-08-29T04:11:47.513Z,42.68
2016-08-29T04:12:47.588Z,42.86
2016-08-29T04:13:47.572Z,42.4
2016-08-29T04:14:47.600Z,42.68
2016-08-29T04:15:47.642Z,42.78
2016-08-29T04:16:47.656Z,42.78
2016-08-29T04:17:47.680Z,42.59
2016-08-29T04:18:47.723Z,42.76
2016-08-29T04:19:47.738Z,43.37
2016-08-29T04:20:47.765Z,43.24
2016-08-29T04:21:47.810Z,43.15
2016-08-29T04:22:47.825Z,43.24
2016-08-29T04:23:47.862Z,43.15
2016-08-29T04:24:47.880Z,43.15
2016-08-29T04:25:47.910Z,43.15
2016-08-29T04:26:47.934Z,43.05
2016-08-29T04:27:48.683Z,43.05
2016-08-29T04:28:48.042Z,42.96
2016-08-29T04:29:48.029Z,42.86
2016-08-29T04:30:48.049Z,42.96
2016-08-29T04:31:48.079Z,42.96
2016-08-29T04:32:48.106Z,43.17
2016-08-29T04:33:48.135Z,43.15
2016-08-29T04:34:48.275Z,43.24
2016-08-29T04:35:48.196Z,43.24
2016-08-29T04:36:48.223Z,43.15
2016-08-29T04:37:48.244Z,43.24
2016-08-29T04:38:48.273Z,43.44
2016-08-29T04:39:48.303Z,43.34
2016-08-29T04:40:48.333Z,43.44
2016-08-29T04:41:48.360Z,43.34
2016-08-29T04:42:48.386Z,43.82
2016-08-29T04:43:48.414Z,43.73
2016-08-29T04:44:48.443Z,43.82
2016-08-29T04:45:48.471Z,43.73
2016-08-29T04:46:48.500Z,43.92
2016-08-29T04:47:48.529Z,43.54
2016-08-29T04:48:48.556Z,43.73
2016-08-29T04:49:48.598Z,43.63
2016-08-29T04:50:48.615Z,43.82
2016-08-29T04:51:48.636Z,43.63
2016-08-29T04:52:48.670Z,43.24
2016-08-29T04:53:48.695Z,43.63
2016-08-29T04:54:48.724Z,43.34
2016-08-29T04:55:48.754Z,43.54
2016-08-29T04:56:48.781Z,43.92
2016-08-29T04:57:48.810Z,43.92
2016-08-29T04:58:48.838Z,43.54
2016-08-29T04:59:49.631Z,43.63
2016-08-29T05:00:48.892Z,43.44
2016-08-29T05:01:48.921Z,43.73
2016-08-29T05:02:48.950Z,43.54
2016-08-29T05:03:49.695Z,43.24
2016-08-29T05:04:49.021Z,43.54
2016-08-29T05:05:49.049Z,43.54
2016-08-29T05:06:49.071Z,43.54
2016-08-29T05:07:49.207Z,43.54
2016-08-29T05:08:49.216Z,43.63
2016-08-29T05:09:49.161Z,43.63
2016-08-29T05:10:49.176Z,43.54
2016-08-29T05:11:49.214Z,43.54
2016-08-29T05:12:49.229Z,43.44
2016-08-29T05:13:49.257Z,43.15
2016-08-29T05:14:49.284Z,43.05
2016-08-29T05:15:49.317Z,43.05
2016-08-29T05:16:49.344Z,43.15
2016-08-29T05:17:49.372Z,43.34
2016-08-29T05:18:49.399Z,43.05
2016-08-29T05:19:49.426Z,43.24
2016-08-29T05:20:49.457Z,43.44
2016-08-29T05:21:49.483Z,43.34
2016-08-29T05:22:49.510Z,43.44
2016-08-29T05:23:49.592Z,43.34
2016-08-29T05:24:49.568Z,43.44
2016-08-29T05:25:49.601Z,43.05
2016-08-29T05:26:49.624Z,43.24
2016-08-29T05:27:49.653Z,43.24
2016-08-29T05:28:49.679Z,43.24
2016-08-29T05:29:49.705Z,43.24
2016-08-29T05:30:49.800Z,43.34
2016-08-29T05:31:50.514Z,43.44
2016-08-29T05:32:49.794Z,43.24
2016-08-29T05:33:49.872Z,42.96
2016-08-29T05:34:49.847Z,42.96
2016-08-29T05:35:49.881Z,43.05
2016-08-29T05:36:49.902Z,42.86
2016-08-29T05:37:49.933Z,42.76
2016-08-29T05:38:49.965Z,42.86
2016-08-29T05:39:49.991Z,43.05
2016-08-29T05:40:50.018Z,42.86
2016-08-29T05:41:50.159Z,43.05
2016-08-29T05:42:50.168Z,43.05
2016-08-29T05:43:50.808Z,42.76
2016-08-29T05:44:50.200Z,43.15
2016-08-29T05:45:50.209Z,43.05
2016-08-29T05:46:50.277Z,43.15
2016-08-29T05:47:50.280Z,43.24
2016-08-29T05:48:50.284Z,43.15
2016-08-29T05:49:50.295Z,43.34
2016-08-29T05:50:50.302Z,42.96
2016-08-29T05:51:50.324Z,42.96
2016-08-29T05:52:50.427Z,42.66
2016-08-29T05:53:50.459Z,42.66
2016-08-29T05:54:50.515Z,42.76
2016-08-29T05:55:51.145Z,42.76
2016-08-29T05:56:50.487Z,42.76
2016-08-29T05:57:50.495Z,42.57
2016-08-29T05:58:50.519Z,42.47
2016-08-29T05:59:50.553Z,42.76
2016-08-29T06:00:50.578Z,42.86
2016-08-29T06:01:51.323Z,42.76
2016-08-29T06:02:50.633Z,42.86
2016-08-29T06:03:50.659Z,42.86
2016-08-29T06:04:50.747Z,42.66
2016-08-29T06:05:50.718Z,42.66
2016-08-29T06:06:50.749Z,42.76
2016-08-29T06:07:50.773Z,42.57
2016-08-29T06:08:50.799Z,42.66
2016-08-29T06:09:50.830Z,42.66
2016-08-29T06:10:50.855Z,42.76
2016-08-29T06:11:50.908Z,42.37
2016-08-29T06:12:50.913Z,42.66
2016-08-29T06:13:50.943Z,42.37
2016-08-29T06:14:50.970Z,42.57
2016-08-29T06:15:51.020Z,42.47
2016-08-29T06:16:51.024Z,42.57
2016-08-29T06:17:51.054Z,42.57
2016-08-29T06:18:51.153Z,42.57
2016-08-29T06:19:51.112Z,42.28
2016-08-29T06:20:51.138Z,42.28
2016-08-29T06:21:51.171Z,42.37
2016-08-29T06:22:51.903Z,42.47
2016-08-29T06:23:51.240Z,42.47
2016-08-29T06:24:51.249Z,42.37
2016-08-29T06:25:51.273Z,42.47
2016-08-29T06:26:51.302Z,42.28
2016-08-29T06:27:51.333Z,42.28
2016-08-29T06:28:51.362Z,42.28
2016-08-29T06:29:51.490Z,42.28
2016-08-29T06:30:51.418Z,42.28
2016-08-29T06:31:51.520Z,41.99
2016-08-29T06:32:51.540Z,42.08
2016-08-29T06:33:51.601Z,42.08
2016-08-29T06:34:51.561Z,42.18
2016-08-29T06:35:51.573Z,41.7
2016-08-29T06:36:51.580Z,41.7
2016-08-29T06:37:51.608Z,41.21
2016-08-29T06:38:51.644Z,41.41
2016-08-29T06:39:51.670Z,41.5
2016-08-29T06:40:51.698Z,41.41
2016-08-29T06:41:51.735Z,41.41
2016-08-29T06:42:51.761Z,41.5
2016-08-29T06:43:51.777Z,41.41
2016-08-29T06:44:51.806Z,41.41
2016-08-29T06:45:51.834Z,41.5
2016-08-29T06:46:51.863Z,41.31
2016-08-29T06:47:51.893Z,41.11
2016-08-29T06:48:51.918Z,41.11
2016-08-29T06:49:51.944Z,41.31
2016-08-29T06:50:51.974Z,41.11
2016-08-29T06:51:52.093Z,41.21
2016-08-29T06:52:52.034Z,40.92
2016-08-29T06:53:52.057Z,41.11
2016-08-29T06:54:52.087Z,40.83
2016-08-29T06:55:52.167Z,40.92
2016-08-29T06:56:52.143Z,40.73
2016-08-29T06:57:52.171Z,40.83
2016-08-29T06:58:52.199Z,40.73
2016-08-29T06:59:52.224Z,40.73
2016-08-29T07:00:52.254Z,40.63
2016-08-29T07:01:52.281Z,40.65
2016-08-29T07:02:52.307Z,40.73
2016-08-29T07:03:52.388Z,40.75
2016-08-29T07:04:52.364Z,40.75
2016-08-29T07:05:52.390Z,40.94
2016-08-29T07:06:52.420Z,40.94
2016-08-29T07:07:52.450Z,40.94
2016-08-29T07:08:52.476Z,41.24
2016-08-29T07:09:52.505Z,41.14
2016-08-29T07:10:52.532Z,40.94
2016-08-29T07:11:52.561Z,40.65
2016-08-29T07:12:52.591Z,40.65
2016-08-29T07:13:52.620Z,40.65
2016-08-29T07:14:52.649Z,40.65
2016-08-29T07:15:52.671Z,40.75
2016-08-29T07:16:52.705Z,40.77
2016-08-29T07:17:52.783Z,40.84
2016-08-29T07:18:52.754Z,40.56
2016-08-29T07:19:52.785Z,40.36
2016-08-29T07:20:52.827Z,40.28
2016-08-29T07:21:52.843Z,40.38
2016-08-29T07:22:52.871Z,40.38
2016-08-29T07:23:52.896Z,40.19
2016-08-29T07:24:52.924Z,40
2016-08-29T07:25:52.963Z,40.19
2016-08-29T07:26:52.981Z,40
2016-08-29T07:27:53.006Z,39.9
2016-08-29T07:28:53.036Z,39.9
2016-08-29T07:29:53.070Z,39.8
2016-08-29T07:30:53.094Z,40
2016-08-29T07:31:53.862Z,40.19
2016-08-29T07:32:53.148Z,39.9
2016-08-29T07:33:53.173Z,40.01
2016-08-29T07:34:53.203Z,39.8
2016-08-29T07:35:53.230Z,39.9
2016-08-29T07:36:53.261Z,39.82
2016-08-29T07:37:53.287Z,39.82
2016-08-29T07:38:53.315Z,39.53
2016-08-29T07:39:53.342Z,39.53
2016-08-29T07:40:53.375Z,39.34
2016-08-29T07:41:53.398Z,39.34
2016-08-29T07:42:53.427Z,39.24
2016-08-29T07:43:53.457Z,39.04
2016-08-29T07:44:53.482Z,38.95
2016-08-29T07:45:53.513Z,38.95
2016-08-29T07:46:53.541Z,38.95
2016-08-29T07:47:53.569Z,38.85
2016-08-29T07:48:53.596Z,38.76
2016-08-29T07:49:53.626Z,38.66
2016-08-29T07:50:53.654Z,38.76
2016-08-29T07:51:53.700Z,38.85
2016-08-29T07:52:53.718Z,38.95
2016-08-29T07:53:53.736Z,38.66
2016-08-29T07:54:53.764Z,38.85
2016-08-29T07:55:53.794Z,38.95
2016-08-29T07:56:53.821Z,38.66
2016-08-29T07:57:53.847Z,38.66
2016-08-29T07:58:53.878Z,38.68
2016-08-29T07:59:53.909Z,38.78
2016-08-29T08:00:53.932Z,38.58
2016-08-29T08:01:53.977Z,38.58
2016-08-29T08:02:53.995Z,38.48
2016-08-29T08:03:54.018Z,38.58
2016-08-29T08:04:54.049Z,38.39
2016-08-29T08:05:54.077Z,37.61
2016-08-29T08:06:54.123Z,38
2016-08-29T08:07:54.134Z,38.19
2016-08-29T08:08:54.161Z,38
2016-08-29T08:09:54.192Z,37.81
2016-08-29T08:10:54.219Z,37.9
2016-08-29T08:11:54.251Z,37.51
2016-08-29T08:12:54.275Z,36.74
2016-08-29T08:13:54.436Z,37.23
2016-08-29T08:14:54.331Z,36.64
2016-08-29T08:15:54.358Z,36.64
2016-08-29T08:16:54.389Z,36.35
2016-08-29T08:17:54.419Z,36.54
2016-08-29T08:18:54.452Z,36.44
2016-08-29T08:19:54.476Z,36.54
2016-08-29T08:20:54.507Z,36.83
2016-08-29T08:21:54.528Z,36.83
2016-08-29T08:22:54.560Z,36.44
2016-08-29T08:23:54.591Z,36.44
2016-08-29T08:24:54.618Z,36.16
2016-08-29T08:25:54.644Z,35.96
2016-08-29T08:26:54.670Z,36.44
2016-08-29T08:27:54.699Z,35.77
2016-08-29T08:28:54.728Z,35.78
2016-08-29T08:29:54.756Z,35.86
2016-08-29T08:30:54.788Z,35.88
2016-08-29T08:31:54.815Z,35.86
2016-08-29T08:32:54.845Z,35.86
2016-08-29T08:33:54.917Z,35.78
2016-08-29T08:34:54.899Z,35.88
2016-08-29T08:35:54.931Z,35.98
2016-08-29T08:36:54.957Z,35.88
2016-08-29T08:37:54.982Z,35.88
2016-08-29T08:38:55.028Z,36.08
2016-08-29T08:39:55.053Z,35.61
2016-08-29T08:40:55.076Z,35.51
2016-08-29T08:41:55.099Z,35.61
2016-08-29T08:42:55.129Z,35.71
2016-08-29T08:43:55.156Z,35.61
2016-08-29T08:44:55.188Z,35.41
2016-08-29T08:45:55.215Z,35.53
2016-08-29T08:46:55.243Z,35.53
2016-08-29T08:47:55.272Z,35.14
2016-08-29T08:48:55.300Z,35.24
2016-08-29T08:49:55.328Z,35.33
2016-08-29T08:50:55.357Z,34.95
2016-08-29T08:51:55.416Z,34.85
2016-08-29T08:52:55.416Z,34.66
2016-08-29T08:53:55.444Z,34.46
2016-08-29T08:54:55.471Z,34.56
2016-08-29T08:55:55.509Z,34.28
2016-08-29T08:56:55.531Z,34.58
2016-08-29T08:57:55.557Z,34.28
2016-08-29T08:58:55.589Z,34.58
2016-08-29T08:59:55.618Z,34.19
2016-08-29T09:00:56.828Z,34.09
2016-08-29T09:01:55.680Z,34.09
2016-08-29T09:02:55.703Z,33.8
2016-08-29T09:03:55.733Z,33.99
2016-08-29T09:04:55.761Z,33.9
2016-08-29T09:05:55.790Z,33.22
2016-08-29T09:06:55.820Z,32.92
2016-08-29T09:07:55.849Z,32.54
2016-08-29T09:08:55.876Z,32.73
2016-08-29T09:09:55.908Z,32.82
2016-08-29T09:10:55.937Z,32.54
2016-08-29T09:11:55.967Z,32.65
2016-08-29T09:12:55.994Z,32.55
2016-08-29T09:13:56.024Z,32.35
2016-08-29T09:14:56.053Z,32.26
2016-08-29T09:15:56.083Z,31.97
2016-08-29T09:16:56.109Z,32.26
2016-08-29T09:17:56.140Z,31.97
2016-08-29T09:18:56.170Z,31.97
2016-08-29T09:19:56.199Z,31.68
2016-08-29T09:20:56.227Z,31.38
2016-08-29T09:21:56.258Z,31.6
2016-08-29T09:22:56.286Z,31.5
2016-08-29T09:23:56.315Z,31.6
2016-08-29T09:24:56.345Z,31.4
2016-08-29T09:25:56.373Z,31.4
2016-08-29T09:26:56.409Z,31.3
2016-08-29T09:27:56.432Z,31.6
2016-08-29T09:28:56.464Z,31.11
2016-08-29T09:29:56.494Z,31.11
2016-08-29T09:30:56.524Z,31.11
2016-08-29T09:31:56.548Z,31.21
2016-08-29T09:32:56.583Z,31.3
2016-08-29T09:33:56.608Z,31.21
2016-08-29T09:34:56.641Z,30.62
2016-08-29T09:35:56.670Z,31.01
2016-08-29T09:36:56.698Z,31.01
2016-08-29T09:37:56.729Z,30.62
2016-08-29T09:38:56.765Z,30.43
2016-08-29T09:39:56.787Z,30.62
2016-08-29T09:40:56.819Z,30.82
2016-08-29T09:41:56.957Z,30.72
2016-08-29T09:42:56.876Z,30.33
2016-08-29T09:43:56.905Z,30.33
2016-08-29T09:44:56.941Z,30.24
2016-08-29T09:45:56.964Z,30.04
2016-08-29T09:46:56.993Z,29.85
2016-08-29T09:47:57.024Z,29.94
2016-08-29T09:48:57.052Z,29.85
2016-08-29T09:49:57.082Z,29.85
2016-08-29T09:50:57.113Z,29.75
2016-08-29T09:51:57.144Z,29.76
2016-08-29T09:52:57.179Z,29.75
2016-08-29T09:53:57.199Z,29.47
2016-08-29T09:54:57.233Z,29.38
2016-08-29T09:55:57.263Z,29.38
2016-08-29T09:56:57.290Z,29.28
2016-08-29T09:57:57.324Z,29.47
2016-08-29T09:58:57.358Z,29.47
2016-08-29T09:59:57.379Z,29.19
2016-08-29T10:00:57.412Z,28.9
2016-08-29T10:01:57.443Z,28.99
2016-08-29T10:02:57.473Z,28.9
2016-08-29T10:03:57.507Z,28.79
2016-08-29T10:04:57.536Z,28.99
2016-08-29T10:05:57.561Z,28.8
2016-08-29T10:06:57.597Z,28.61
2016-08-29T10:07:57.621Z,28.42
2016-08-29T10:08:57.653Z,28.7
2016-08-29T10:09:57.682Z,28.7
2016-08-29T10:10:57.708Z,28.8
2016-08-29T10:11:57.748Z,28.7
2016-08-29T10:12:58.478Z,28.51
2016-08-29T10:13:57.807Z,28.13
2016-08-29T10:14:57.829Z,27.93
2016-08-29T10:15:57.859Z,27.93
2016-08-29T10:16:57.890Z,28.22
2016-08-29T10:17:57.924Z,28.13
2016-08-29T10:18:57.959Z,27.64
2016-08-29T10:19:58.561Z,28.13
2016-08-29T10:20:58.010Z,27.93
2016-08-29T10:21:58.039Z,28.22
2016-08-29T10:22:58.157Z,28.13
2016-08-29T10:23:58.152Z,28.22
2016-08-29T10:24:58.133Z,28.13
2016-08-29T10:25:58.163Z,28.22
2016-08-29T10:26:58.200Z,28.72
2016-08-29T10:27:58.222Z,28.23
2016-08-29T10:28:58.258Z,28.23
2016-08-29T10:29:59.090Z,28.23
2016-08-29T10:30:58.312Z,28.23
2016-08-29T10:31:58.345Z,28.04
2016-08-29T10:32:58.374Z,28.04
2016-08-29T10:33:58.404Z,28.23
2016-08-29T10:34:58.436Z,27.75
2016-08-29T10:35:58.466Z,28.14
2016-08-29T10:36:58.495Z,27.75
2016-08-29T10:37:58.528Z,27.65
2016-08-29T10:38:58.560Z,27.84
2016-08-29T10:39:58.589Z,27.47
2016-08-29T10:40:58.618Z,27.28
2016-08-29T10:41:58.651Z,27.28
2016-08-29T10:42:58.676Z,27.66
2016-08-29T10:43:58.710Z,27.47
2016-08-29T10:44:58.742Z,27.18
2016-08-29T10:45:58.865Z,27.28
2016-08-29T10:46:58.840Z,27.18
2016-08-29T10:47:58.840Z,27.08
2016-08-29T10:48:58.979Z,27.28
2016-08-29T10:49:58.994Z,27.28
2016-08-29T10:50:58.922Z,27.66
2016-08-29T10:51:58.954Z,26.98
2016-08-29T10:52:59.695Z,27.28
2016-08-29T10:53:59.016Z,27.08
2016-08-29T10:54:59.044Z,27.56
2016-08-29T10:55:59.196Z,27.08
2016-08-29T10:56:59.107Z,27.47
2016-08-29T10:57:59.138Z,27.37
2016-08-29T10:58:59.170Z,27.28
2016-08-29T10:59:59.201Z,27.18
2016-08-29T11:00:59.998Z,27.28
2016-08-29T11:01:59.261Z,27.95
2016-08-29T11:02:59.345Z,27.66
2016-08-29T11:03:59.440Z,27.37
2016-08-29T11:04:59.349Z,27.18
2016-08-29T11:05:59.384Z,27.37
2016-08-29T11:06:59.417Z,27.58
2016-08-29T11:07:59.559Z,27.09
2016-08-29T11:08:59.483Z,27.29
2016-08-29T11:09:59.613Z,26.9
2016-08-29T11:10:59.537Z,27.19
2016-08-29T11:11:59.568Z,27.29
2016-08-29T11:12:59.600Z,27.39
2016-08-29T11:13:59.632Z,26.8
2016-08-29T11:14:59.664Z,26.61
2016-08-29T11:15:59.692Z,26.8
2016-08-29T11:16:59.720Z,26.51
2016-08-29T11:17:59.753Z,26.41
2016-08-29T11:18:59.785Z,26.52
2016-08-29T11:19:59.868Z,26.62
2016-08-29T11:20:59.851Z,26.72
2016-08-29T11:21:59.875Z,26.42
2016-08-29T11:22:59.922Z,25.85
2016-08-29T11:23:59.936Z,26.04
2016-08-29T11:24:59.973Z,25.16
2016-08-29T11:26:00.000Z,25.16
2016-08-29T11:27:00.033Z,25.56
2016-08-29T11:28:00.066Z,25.36
2016-08-29T11:29:00.098Z,25.36
2016-08-29T11:30:00.126Z,25.16
2016-08-29T11:31:00.157Z,24.78
2016-08-29T11:32:00.191Z,24.98
2016-08-29T11:33:00.220Z,25.16
2016-08-29T11:34:00.300Z,24.88
2016-08-29T11:35:00.283Z,24.98
2016-08-29T11:36:00.316Z,24.98
2016-08-29T11:37:00.418Z,24.58
2016-08-29T11:38:00.383Z,24.98
2016-08-29T11:39:00.583Z,24.98
2016-08-29T11:40:00.447Z,24.98
2016-08-29T11:41:00.474Z,24.98
2016-08-29T11:42:00.516Z,24.98
2016-08-29T11:43:00.544Z,24.98
2016-08-29T11:44:00.569Z,25.16
2016-08-29T11:45:00.599Z,25.46
2016-08-29T11:46:00.630Z,25.07
2016-08-29T11:47:00.712Z,24.88
2016-08-29T11:48:00.699Z,24.88
2016-08-29T11:49:00.723Z,24.68
2016-08-29T11:50:00.756Z,24.49
2016-08-29T11:51:00.811Z,24.29
2016-08-29T11:52:00.815Z,24.49
2016-08-29T11:53:00.852Z,24.1
2016-08-29T11:54:01.031Z,24.39
2016-08-29T11:55:00.912Z,24.49
2016-08-29T11:56:00.951Z,24.58
2016-08-29T11:57:00.975Z,24.19
2016-08-29T11:58:01.019Z,24.49
2016-08-29T11:59:01.038Z,24.58
2016-08-29T12:00:01.075Z,24.29
2016-08-29T12:01:01.099Z,24.29
2016-08-29T12:02:01.151Z,24.19
2016-08-29T12:03:01.165Z,24.29
2016-08-29T12:04:01.196Z,24
2016-08-29T12:05:01.275Z,24.21
2016-08-29T12:06:01.261Z,24.21
2016-08-29T12:07:01.298Z,24.29
2016-08-29T12:08:01.537Z,24.21
2016-08-29T12:09:01.356Z,24.21
2016-08-29T12:10:02.093Z,24.21
2016-08-29T12:11:01.421Z,24.21
2016-08-29T12:12:01.450Z,23.83
2016-08-29T12:13:01.480Z,23.54
2016-08-29T12:14:01.514Z,23.93
2016-08-29T12:15:01.550Z,23.83
2016-08-29T12:16:01.577Z,23.93
2016-08-29T12:17:01.611Z,23.83
2016-08-29T12:18:01.643Z,23.93
2016-08-29T12:19:01.676Z,23.73
2016-08-29T12:20:01.706Z,23.83
2016-08-29T12:21:01.738Z,23.83
2016-08-29T12:22:01.884Z,23.64
2016-08-29T12:23:01.801Z,23.25
2016-08-29T12:24:01.832Z,23.35
2016-08-29T12:25:02.072Z,23.54
2016-08-29T12:26:01.895Z,23.64
2016-08-29T12:27:01.927Z,23.35
2016-08-29T12:28:02.013Z,23.25
2016-08-29T12:29:02.107Z,23.74
2016-08-29T12:30:02.024Z,23.54
2016-08-29T12:31:02.056Z,23.44
2016-08-29T12:32:02.089Z,23.83
2016-08-29T12:33:02.123Z,23.74
2016-08-29T12:34:02.173Z,23.74
2016-08-29T12:35:02.235Z,23.25
2016-08-29T12:36:02.244Z,23.54
2016-08-29T12:37:02.257Z,23.35
2016-08-29T12:38:02.282Z,23.25
2016-08-29T12:39:02.330Z,23.64
2016-08-29T12:40:02.348Z,22.96
2016-08-29T12:41:02.429Z,23.25
2016-08-29T12:42:02.414Z,23.15
2016-08-29T12:43:02.632Z,22.86
2016-08-29T12:44:02.508Z,23.25
2016-08-29T12:45:02.741Z,22.96
2016-08-29T12:46:02.540Z,22.86
2016-08-29T12:47:02.574Z,22.86
2016-08-29T12:48:02.603Z,22.86
2016-08-29T12:49:03.347Z,22.96
2016-08-29T12:50:02.683Z,22.86
2016-08-29T12:51:02.701Z,22.47
2016-08-29T12:52:02.738Z,22.96
2016-08-29T12:53:02.768Z,23.05
2016-08-29T12:54:02.802Z,23.35
2016-08-29T12:55:02.920Z,23.05
2016-08-29T12:56:02.873Z,23.15